createdAt,value
2022-11-11T00:02:35.528Z,61.75
2022-11-11T00:05:21.592Z,67.43
2022-11-11T00:08:06.391Z,60.85
2022-11-11T00:10:51.150Z,64.65
2022-11-11T00:13:36.275Z,65.80
2022-11-11T00:16:21.522Z,62.50
2022-11-11T00:19:25.123Z,57.38
2022-11-11T00:22:38.568Z,67.50
2022-11-11T00:25:23.504Z,62.90
2022-11-11T00:28:08.168Z,59.25
2022-11-11T00:31:00.789Z,61.60
2022-11-11T00:33:45.751Z,67.55
2022-11-11T00:36:30.428Z,66.13
2022-11-11T00:39:15.344Z,70.00
2022-11-11T00:42:00.070Z,64.90
2022-11-11T00:44:45.007Z,68.80
2022-11-11T00:47:48.562Z,65.28
2022-11-11T00:50:52.550Z,73.77
2022-11-11T00:53:38.813Z,62.30
2022-11-11T00:56:23.761Z,67.22
2022-11-11T00:59:09.053Z,59.22
2022-11-11T01:01:54.217Z,66.90
2022-11-11T01:04:39.566Z,65.03
2022-11-11T01:07:24.585Z,66.22
2022-11-11T01:10:09.944Z,67.20
2022-11-11T01:13:11.750Z,58.42
2022-11-11T01:16:04.385Z,71.00
2022-11-11T01:18:50.562Z,68.45
2022-11-11T01:21:35.556Z,66.20
2022-11-11T01:24:20.778Z,61.00
2022-11-11T01:27:05.502Z,56.60
2022-11-11T01:29:50.388Z,61.25
2022-11-11T01:32:35.156Z,60.78
2022-11-11T01:35:19.940Z,66.07
2022-11-11T01:38:04.635Z,59.45
2022-11-11T01:40:50.088Z,55.20
2022-11-11T01:43:35.079Z,52.80
2022-11-11T01:46:24.154Z,50.63
2022-11-11T01:49:21.296Z,53.03
2022-11-11T01:52:09.230Z,46.13
2022-11-11T01:55:05.689Z,64.75
2022-11-11T01:57:57.591Z,53.97
2022-11-11T02:00:42.700Z,55.28
2022-11-11T02:03:28.949Z,64.05
2022-11-11T02:06:14.159Z,90.03
2022-11-11T02:08:59.279Z,125.50
2022-11-11T02:12:03.197Z,64.32
2022-11-11T02:14:50.763Z,250.70
2022-11-11T02:17:35.544Z,81.50
2022-11-11T02:20:22.764Z,63.80
2022-11-11T02:23:10.989Z,56.67
2022-11-11T02:25:56.510Z,224.82
2022-11-11T02:28:41.536Z,57.03
2022-11-11T02:31:29.796Z,77.90
2022-11-11T02:34:14.944Z,61.05
2022-11-11T02:37:00.950Z,63.22
2022-11-11T02:42:51.104Z,38.53
2022-11-11T02:45:36.002Z,35.97
2022-11-11T02:48:21.291Z,36.10
2022-11-11T02:51:07.193Z,38.65
2022-11-11T02:53:52.689Z,38.83
2022-11-11T02:56:56.114Z,32.70
2022-11-11T02:59:41.691Z,40.60
2022-11-11T03:02:27.566Z,38.78
2022-11-11T03:05:12.602Z,42.38
2022-11-11T03:07:57.868Z,63.28
2022-11-11T03:10:43.060Z,41.67
2022-11-11T03:13:28.826Z,36.40
2022-11-11T03:16:34.194Z,33.38
2022-11-11T03:19:19.168Z,39.83
2022-11-11T03:22:53.902Z,33.28
2022-11-11T03:25:27.919Z,29.38
2022-11-11T03:28:14.358Z,35.05
2022-11-11T03:31:03.908Z,30.83
2022-11-11T03:33:49.191Z,36.78
2022-11-11T03:36:54.955Z,35.47
2022-11-11T03:39:40.032Z,34.05
2022-11-11T03:42:24.964Z,39.28
2022-11-11T03:45:09.855Z,31.38
2022-11-11T03:47:54.884Z,35.25
2022-11-11T03:50:39.996Z,31.65
2022-11-11T03:53:25.351Z,30.08
2022-11-11T03:56:10.560Z,31.15
2022-11-11T03:58:55.388Z,27.08
2022-11-11T04:01:58.884Z,28.83
2022-11-11T04:05:02.831Z,28.37
2022-11-11T04:08:06.635Z,24.10
2022-11-11T04:10:51.577Z,22.23
2022-11-11T04:13:55.243Z,24.13
2022-11-11T04:16:40.308Z,23.10
2022-11-11T04:19:43.925Z,27.52
2022-11-11T04:22:28.933Z,24.33
2022-11-11T04:25:32.339Z,30.17
2022-11-11T04:28:36.197Z,32.97
2022-11-11T04:31:21.210Z,31.03
2022-11-11T04:34:06.023Z,33.85
2022-11-11T04:36:50.803Z,36.67
2022-11-11T04:39:54.557Z,36.60
2022-11-11T04:42:39.670Z,32.90
2022-11-11T04:45:36.025Z,37.72
2022-11-11T04:48:21.048Z,29.20
2022-11-11T04:51:05.948Z,33.63
2022-11-11T04:53:50.651Z,37.05
2022-11-11T04:56:47.707Z,33.97
2022-11-11T04:59:32.351Z,32.72
2022-11-11T05:02:36.011Z,36.80
2022-11-11T05:05:21.333Z,35.85
2022-11-11T05:08:25.163Z,33.25
2022-11-11T05:11:10.114Z,31.60
2022-11-11T05:14:15.128Z,35.72
2022-11-11T05:17:18.825Z,34.25
2022-11-11T05:20:22.643Z,39.30
2022-11-11T05:23:07.645Z,35.72
2022-11-11T05:25:52.596Z,39.03
2022-11-11T05:28:37.326Z,34.72
2022-11-11T05:31:22.208Z,37.92
2022-11-11T05:34:06.989Z,32.67
2022-11-11T05:36:51.656Z,26.17
2022-11-11T05:39:36.555Z,27.60
2022-11-11T05:42:21.552Z,30.00
2022-11-11T05:45:06.643Z,30.25
2022-11-11T05:47:51.820Z,25.85
2022-11-11T05:50:41.135Z,24.33
2022-11-11T05:53:26.101Z,37.53
2022-11-11T05:56:11.474Z,24.75
2022-11-11T05:58:56.489Z,27.60
2022-11-11T06:01:41.480Z,29.98
2022-11-11T06:04:26.125Z,33.15
2022-11-11T06:07:10.970Z,29.67
2022-11-11T06:10:15.672Z,38.42
2022-11-11T06:13:10.138Z,23.70
2022-11-11T06:15:56.015Z,26.20
2022-11-11T06:18:40.807Z,28.25
2022-11-11T06:21:26.438Z,25.48
2022-11-11T06:24:11.360Z,30.25
2022-11-11T06:26:56.478Z,30.25
2022-11-11T06:29:41.270Z,26.38
2022-11-11T06:32:26.099Z,34.38
2022-11-11T06:35:10.814Z,29.42
2022-11-11T06:37:55.618Z,32.03
2022-11-11T06:40:42.259Z,36.28
2022-11-11T06:43:27.818Z,25.70
2022-11-11T06:46:18.585Z,30.23
2022-11-11T06:49:03.760Z,25.58
2022-11-11T06:51:48.620Z,27.08
2022-11-11T06:54:33.328Z,23.83
2022-11-11T06:57:18.001Z,21.35
2022-11-11T07:00:04.275Z,31.17
2022-11-11T07:02:54.989Z,26.27
2022-11-11T07:05:40.111Z,29.17
2022-11-11T07:08:25.618Z,27.02
2022-11-11T07:11:17.289Z,22.70
2022-11-11T07:14:03.940Z,29.33
2022-11-11T07:16:48.639Z,26.88
2022-11-11T07:19:33.614Z,28.58
2022-11-11T07:22:18.348Z,20.48
2022-11-11T07:25:03.685Z,24.88
2022-11-11T07:27:48.992Z,31.67
2022-11-11T07:30:34.070Z,26.30
2022-11-11T07:33:24.104Z,27.52
2022-11-11T07:36:10.019Z,23.38
2022-11-11T07:38:54.856Z,26.67
2022-11-11T07:41:39.595Z,25.73
2022-11-11T07:44:24.244Z,20.63
2022-11-11T07:47:09.227Z,19.63
2022-11-11T07:49:53.931Z,24.73
2022-11-11T07:52:38.857Z,22.67
2022-11-11T07:55:23.727Z,24.05
2022-11-11T07:58:08.592Z,19.58
2022-11-11T08:00:53.396Z,22.83
2022-11-11T08:03:49.416Z,23.15
2022-11-11T08:06:34.711Z,25.08
2022-11-11T08:09:19.669Z,17.42
2022-11-11T08:12:27.845Z,17.10
2022-11-11T08:15:12.769Z,20.58
2022-11-11T08:17:57.855Z,15.90
2022-11-11T08:20:46.460Z,21.08
2022-11-11T08:29:23.449Z,25.27
2022-11-11T08:32:08.346Z,22.98
2022-11-11T08:34:53.224Z,30.58
2022-11-11T08:37:38.018Z,29.23
2022-11-11T08:40:22.824Z,24.05
2022-11-11T08:43:07.691Z,24.05
2022-11-11T08:45:53.334Z,23.48
2022-11-11T08:48:38.275Z,18.85
2022-11-11T08:51:23.024Z,17.20
2022-11-11T08:54:07.946Z,16.15
2022-11-11T08:56:52.926Z,17.02
2022-11-11T08:59:37.637Z,15.15
2022-11-11T09:02:22.652Z,15.10
2022-11-11T09:05:07.695Z,13.90
2022-11-11T09:07:52.484Z,14.75
2022-11-11T09:10:37.581Z,14.57
2022-11-11T09:13:22.915Z,16.55
2022-11-11T09:16:08.137Z,15.15
2022-11-11T09:18:53.200Z,15.70
2022-11-11T09:21:38.194Z,14.07
2022-11-11T09:24:23.093Z,16.92
2022-11-11T09:27:09.228Z,13.82
2022-11-11T09:29:54.269Z,16.25
2022-11-11T09:32:39.010Z,15.18
2022-11-11T09:35:23.922Z,15.88
2022-11-11T09:38:08.819Z,14.95
2022-11-11T09:41:01.768Z,16.75
2022-11-11T09:43:50.058Z,15.73
2022-11-11T09:46:48.581Z,19.15
2022-11-11T09:49:51.848Z,17.48
2022-11-11T09:52:55.331Z,19.30
2022-11-11T09:55:42.507Z,19.48
2022-11-11T09:58:51.204Z,22.10
2022-11-11T10:01:47.522Z,19.50
2022-11-11T10:04:39.975Z,21.15
2022-11-11T10:07:27.366Z,24.05
2022-11-11T10:10:24.536Z,19.05
2022-11-11T10:13:13.977Z,21.88
2022-11-11T10:16:25.319Z,20.80
2022-11-11T10:19:29.292Z,18.13
2022-11-11T10:22:32.822Z,19.25
2022-11-11T10:25:22.752Z,18.55
2022-11-11T10:28:13.341Z,20.48
2022-11-11T10:31:00.309Z,22.50
2022-11-11T10:33:54.555Z,18.90
2022-11-11T10:36:44.537Z,17.77
2022-11-11T10:39:46.467Z,15.25
2022-11-11T10:42:31.439Z,21.25
2022-11-11T10:45:34.989Z,16.20
2022-11-11T10:48:29.522Z,12.15
2022-11-11T10:51:16.316Z,15.90
2022-11-11T10:54:12.799Z,14.18
2022-11-11T10:57:00.132Z,12.00
2022-11-11T10:59:49.440Z,13.32
2022-11-11T11:02:40.606Z,12.45
2022-11-11T11:05:28.727Z,12.02
2022-11-11T11:08:19.302Z,12.00
2022-11-11T11:11:09.448Z,10.23
2022-11-11T11:13:58.644Z,11.15
2022-11-11T11:16:48.452Z,13.30
2022-11-11T11:19:33.269Z,12.27
2022-11-11T11:22:18.163Z,12.63
2022-11-11T11:25:11.216Z,10.77
2022-11-11T11:28:12.662Z,11.77
2022-11-11T11:31:05.547Z,13.52
2022-11-11T11:33:51.999Z,16.00
2022-11-11T11:36:37.035Z,17.20
2022-11-11T11:39:38.783Z,14.63
2022-11-11T11:42:33.758Z,16.08
2022-11-11T11:45:26.386Z,15.32
2022-11-11T11:48:36.217Z,14.60
2022-11-11T11:51:27.490Z,18.05
2022-11-11T11:54:23.791Z,18.10
2022-11-11T11:57:17.959Z,19.13
2022-11-11T12:00:05.406Z,19.08
2022-11-11T12:02:56.221Z,17.58
2022-11-11T12:05:55.936Z,20.23
2022-11-11T12:08:40.581Z,21.10
2022-11-11T12:11:25.503Z,21.55
2022-11-11T12:14:28.841Z,24.63
2022-11-11T12:17:16.575Z,25.83
2022-11-11T12:20:20.078Z,27.15
2022-11-11T12:23:23.680Z,25.77
2022-11-11T12:26:15.351Z,25.98
2022-11-11T12:29:19.486Z,29.85
2022-11-11T12:32:16.430Z,31.67
2022-11-11T12:35:20.260Z,29.33
2022-11-11T12:38:20.310Z,33.90
2022-11-11T12:41:16.811Z,35.75
2022-11-11T12:44:06.915Z,50.95
2022-11-11T12:46:58.171Z,37.05
2022-11-11T12:49:43.406Z,100.78
2022-11-11T12:52:34.296Z,40.85
2022-11-11T12:55:37.847Z,58.17
2022-11-11T12:58:42.698Z,40.53
2022-11-11T13:01:46.404Z,48.17
2022-11-11T13:04:49.278Z,79.18
2022-11-11T13:07:34.150Z,39.50
2022-11-11T13:10:37.771Z,206.07
2022-11-11T13:13:25.999Z,37.70
2022-11-11T13:16:10.976Z,999.47
2022-11-11T13:19:00.623Z,288.77
2022-11-11T13:21:51.512Z,75.60
2022-11-11T13:24:36.578Z,38.40
2022-11-11T13:27:21.239Z,42.33
2022-11-11T13:30:12.446Z,38.75
2022-11-11T13:33:09.674Z,32.00
2022-11-11T13:35:56.376Z,32.55
2022-11-11T13:38:46.234Z,44.67
2022-11-11T13:41:36.806Z,37.33
2022-11-11T13:44:24.358Z,38.35
2022-11-11T13:47:12.591Z,37.58
2022-11-11T13:50:04.118Z,35.33
2022-11-11T13:53:05.599Z,29.92
2022-11-11T13:55:52.896Z,38.40
2022-11-11T13:58:38.836Z,34.38
2022-11-11T14:01:24.415Z,36.25
2022-11-11T14:04:10.158Z,34.65
2022-11-11T14:06:55.059Z,37.38
2022-11-11T14:09:56.411Z,39.60
2022-11-11T14:12:41.763Z,113.55
2022-11-11T14:15:33.102Z,34.08
2022-11-11T14:18:17.870Z,39.67
2022-11-11T14:21:02.924Z,38.13
2022-11-11T14:23:52.716Z,33.85
2022-11-11T14:26:37.768Z,37.80
2022-11-11T14:29:34.837Z,32.17
2022-11-11T14:32:38.735Z,34.38
2022-11-11T14:35:36.437Z,31.63
2022-11-11T14:38:41.007Z,31.92
2022-11-11T14:41:41.357Z,37.60
2022-11-11T14:44:26.388Z,33.65
2022-11-11T14:47:14.442Z,43.05
2022-11-11T14:49:59.591Z,38.45
2022-11-11T14:52:44.769Z,257.55
2022-11-11T14:55:30.550Z,107.57
2022-11-11T14:58:18.027Z,313.90
2022-11-11T15:01:08.905Z,309.65
2022-11-11T15:03:54.845Z,239.15
2022-11-11T15:06:52.989Z,658.97
2022-11-11T15:09:52.389Z,334.70
2022-11-11T15:12:43.342Z,103.75
2022-11-11T15:15:32.892Z,143.73
2022-11-11T15:18:24.158Z,767.13
2022-11-11T15:21:29.201Z,174.60
2022-11-11T15:24:17.204Z,79.47
2022-11-11T15:27:10.419Z,63.22
2022-11-11T15:29:57.846Z,55.60
2022-11-11T15:32:43.412Z,58.92
2022-11-11T15:35:50.103Z,67.40
2022-11-11T15:38:35.160Z,57.83
2022-11-11T15:41:24.723Z,64.97
2022-11-11T15:44:17.079Z,125.97
2022-11-11T15:47:03.186Z,100.25
2022-11-11T15:49:48.434Z,260.30
2022-11-11T15:52:34.305Z,65.40
2022-11-11T15:55:23.836Z,110.72
2022-11-11T15:58:10.487Z,248.25
2022-11-11T16:00:58.097Z,218.50
2022-11-11T16:03:43.751Z,266.35
2022-11-11T16:06:28.734Z,282.90
2022-11-11T16:09:14.375Z,491.92
2022-11-11T16:11:59.394Z,305.23
2022-11-11T16:14:46.598Z,260.90
2022-11-11T16:17:37.243Z,369.65
2022-11-11T16:20:25.839Z,216.23
2022-11-11T16:23:13.781Z,257.48
2022-11-11T16:25:58.739Z,357.77
2022-11-11T16:28:46.199Z,239.32
2022-11-11T16:31:37.008Z,223.80
2022-11-11T16:34:27.561Z,266.33
2022-11-11T16:37:16.573Z,280.90
2022-11-11T16:40:20.544Z,181.02
2022-11-11T16:43:11.590Z,430.88
2022-11-11T16:45:58.623Z,243.65
2022-11-11T16:48:45.115Z,215.77
2022-11-11T16:51:44.591Z,185.05
2022-11-11T16:54:31.257Z,160.55
2022-11-11T16:57:17.520Z,308.45
2022-11-11T17:00:05.297Z,439.98
2022-11-11T17:03:25.270Z,404.33
2022-11-11T17:06:10.954Z,222.38
2022-11-11T17:08:55.935Z,311.40
2022-11-11T17:11:40.945Z,272.65
2022-11-11T17:14:26.699Z,283.33
2022-11-11T17:17:11.648Z,315.98
2022-11-11T17:20:07.383Z,393.05
2022-11-11T17:22:53.187Z,367.13
2022-11-11T17:25:38.036Z,444.52
2022-11-11T17:28:23.577Z,191.35
2022-11-11T17:31:10.359Z,347.85
2022-11-11T17:33:55.353Z,287.30
2022-11-11T17:36:40.196Z,334.67
2022-11-11T17:39:24.964Z,268.27
2022-11-11T17:42:09.719Z,244.68
2022-11-11T17:44:54.386Z,129.50
2022-11-11T17:47:43.450Z,141.93
2022-11-11T17:50:29.032Z,126.82
2022-11-11T17:53:25.540Z,109.68
2022-11-11T17:56:11.230Z,125.43
2022-11-11T17:58:55.965Z,99.28
2022-11-11T18:01:40.854Z,101.07
2022-11-11T18:04:25.504Z,136.80
2022-11-11T18:07:10.447Z,75.60
2022-11-11T18:09:55.184Z,123.28
2022-11-11T18:12:41.272Z,105.72
2022-11-11T18:15:26.039Z,138.80
2022-11-11T18:18:10.847Z,77.97
2022-11-11T18:21:00.354Z,172.70
2022-11-11T18:23:49.185Z,64.75
2022-11-11T18:26:37.053Z,220.68
2022-11-11T18:29:22.055Z,103.07
2022-11-11T18:32:06.993Z,174.48
2022-11-11T18:34:51.850Z,80.18
2022-11-11T18:37:42.447Z,98.07
2022-11-11T18:40:30.090Z,228.98
2022-11-11T18:43:14.798Z,112.38
2022-11-11T18:46:02.985Z,132.48
2022-11-11T18:48:48.324Z,232.18
2022-11-11T18:51:34.707Z,171.93
2022-11-11T18:54:19.804Z,234.15
2022-11-11T18:57:04.804Z,173.05
2022-11-11T18:59:49.634Z,190.25
2022-11-11T19:02:34.471Z,153.73
2022-11-11T19:05:19.307Z,331.50
2022-11-11T19:08:04.991Z,97.55
2022-11-11T19:10:50.034Z,237.18
2022-11-11T19:13:35.509Z,273.98
2022-11-11T19:16:24.864Z,184.32
2022-11-11T19:19:09.912Z,384.45
2022-11-11T19:21:54.896Z,422.77
2022-11-11T19:24:39.771Z,421.45
2022-11-11T19:27:24.480Z,315.55
2022-11-11T19:30:09.540Z,248.27
2022-11-11T19:32:54.649Z,269.17
2022-11-11T19:35:39.493Z,269.88
2022-11-11T19:38:24.126Z,154.55
2022-11-11T19:41:10.313Z,279.85
2022-11-11T19:43:56.372Z,362.83
2022-11-11T19:46:41.551Z,315.17
2022-11-11T19:49:26.429Z,284.40
2022-11-11T19:52:11.252Z,184.55
2022-11-11T19:54:56.856Z,226.63
2022-11-11T19:57:41.785Z,185.73
2022-11-11T20:00:26.695Z,127.68
2022-11-11T20:03:11.294Z,144.25
2022-11-11T20:05:56.174Z,125.25
2022-11-11T20:08:41.039Z,182.65
2022-11-11T20:11:26.752Z,80.97
2022-11-11T20:14:11.921Z,112.65
2022-11-11T20:16:56.725Z,96.10
2022-11-11T20:19:42.163Z,126.00
2022-11-11T20:22:26.895Z,92.07
2022-11-11T20:25:11.743Z,71.47
2022-11-11T20:27:56.561Z,287.10
2022-11-11T20:30:41.362Z,235.80
2022-11-11T20:33:26.687Z,127.40
2022-11-11T20:36:12.501Z,271.55
2022-11-11T20:38:57.546Z,107.75
2022-11-11T20:41:42.251Z,163.90
2022-11-11T20:44:26.971Z,134.48
2022-11-11T20:47:11.727Z,325.55
2022-11-11T20:49:56.546Z,283.05
2022-11-11T20:52:41.282Z,252.80
2022-11-11T20:55:26.058Z,154.10
2022-11-11T20:58:11.872Z,106.28
2022-11-11T21:01:07.183Z,257.17
2022-11-11T21:03:56.467Z,254.98
2022-11-11T21:06:41.516Z,153.57
2022-11-11T21:09:26.267Z,209.23
2022-11-11T21:12:11.031Z,290.02
2022-11-11T21:14:55.796Z,242.38
2022-11-11T21:17:40.594Z,405.65
2022-11-11T21:20:25.361Z,316.25
2022-11-11T21:23:10.026Z,247.18
2022-11-11T21:26:00.007Z,157.30
2022-11-11T21:28:45.507Z,283.50
2022-11-11T21:31:34.352Z,201.43
2022-11-11T21:34:19.145Z,158.35
2022-11-11T21:37:04.012Z,119.75
2022-11-11T21:39:48.811Z,148.10
2022-11-11T21:42:33.492Z,101.43
2022-11-11T21:45:18.296Z,76.10
2022-11-11T21:48:03.387Z,68.72
2022-11-11T21:50:48.335Z,206.82
2022-11-11T21:53:33.771Z,100.97
2022-11-11T21:56:18.874Z,137.82
2022-11-11T21:59:04.717Z,106.30
2022-11-11T22:01:49.737Z,122.47
2022-11-11T22:04:34.518Z,114.03
2022-11-11T22:07:19.488Z,157.55
2022-11-11T22:10:04.698Z,74.00
2022-11-11T22:12:49.902Z,133.75
2022-11-11T22:15:38.203Z,71.03
2022-11-11T22:18:23.716Z,53.30
2022-11-11T22:21:16.424Z,84.80
2022-11-11T22:24:02.887Z,75.72
2022-11-11T22:26:49.682Z,82.80
2022-11-11T22:29:34.769Z,140.88
2022-11-11T22:32:19.444Z,116.15
2022-11-11T22:35:04.460Z,84.10
2022-11-11T22:37:49.122Z,92.85
2022-11-11T22:40:34.064Z,143.75
2022-11-11T22:43:38.068Z,89.57
2022-11-11T22:46:24.317Z,159.45
2022-11-11T22:49:12.700Z,105.53
2022-11-11T22:51:57.349Z,109.50
2022-11-11T22:54:42.153Z,70.90
2022-11-11T22:57:30.629Z,54.88
2022-11-11T23:00:15.547Z,48.60
2022-11-11T23:03:00.544Z,34.63
2022-11-11T23:05:45.254Z,61.58
2022-11-11T23:08:30.068Z,68.78
2022-11-11T23:11:16.491Z,44.65
2022-11-11T23:14:11.471Z,45.67
2022-11-11T23:16:56.508Z,32.35
2022-11-11T23:19:41.260Z,39.95
2022-11-11T23:22:26.103Z,53.90
2022-11-11T23:25:11.043Z,60.88
2022-11-11T23:27:55.890Z,33.72
2022-11-11T23:30:40.650Z,51.83
2022-11-11T23:33:25.567Z,38.85
2022-11-11T23:36:12.064Z,32.20
2022-11-11T23:38:57.006Z,51.00
2022-11-11T23:41:41.719Z,36.40
2022-11-11T23:44:26.520Z,40.95
2022-11-11T23:47:11.168Z,60.22
2022-11-11T23:49:55.932Z,36.95
2022-11-11T23:52:40.731Z,45.90
2022-11-11T23:55:25.483Z,57.67
2022-11-11T23:58:10.457Z,43.22
